Time;durP1;ratioP1;P1;durP2;ratioP2;P2;SDS_P1;SDS_P2;PMS_P1;PMS_P2;Temp;Humidity;BMP_temperature;BMP_pressure;BME280_temperature;BME280_humidity;BME280_pressure;Samples;Min_cycle;Max_cycle;Signal;HPM_P1;HPM_P2
2023/07/31 00:01:37;;;;;;;5.20;1.60;;;;;;;15.89;96.79;100310.27;106664;1250;61668;-67
2023/07/31 00:04:03;;;;;;;5.40;1.40;;;;;;;15.89;96.99;100310.83;106312;1250;73217;-70
2023/07/31 00:06:31;;;;;;;4.10;1.40;;;;;;;15.93;96.85;100310.55;106431;1250;71083;-69
2023/07/31 00:08:57;;;;;;;4.80;1.50;;;;;;;15.96;97.02;100306.20;106312;1251;71528;-67
2023/07/31 00:11:24;;;;;;;3.10;1.40;;;;;;;15.99;97.10;100301.33;106573;1250;61410;-68
2023/07/31 00:13:53;;;;;;;4.40;1.60;;;;;;;16.01;97.14;100293.95;106426;1250;61250;-68
2023/07/31 00:16:20;;;;;;;3.80;1.50;;;;;;;16.03;97.01;100290.33;106331;1250;73428;-67
2023/07/31 00:18:47;;;;;;;4.60;1.40;;;;;;;16.05;97.25;100285.98;106331;1254;70455;-67
2023/07/31 00:21:14;;;;;;;4.30;1.40;;;;;;;16.06;97.27;100284.91;106453;1250;71483;-68
2023/07/31 00:23:40;;;;;;;2.80;1.40;;;;;;;16.05;97.26;100282.46;106438;1250;61248;-68
2023/07/31 00:26:07;;;;;;;3.70;1.70;;;;;;;16.02;97.66;100278.04;106396;1251;61108;-68
2023/07/31 00:28:34;;;;;;;4.20;1.70;;;;;;;16.00;98.11;100283.04;106422;1254;72821;-68
2023/07/31 00:31:02;;;;;;;3.90;1.50;;;;;;;15.98;98.14;100288.09;106384;1250;70019;-69
2023/07/31 00:33:31;;;;;;;4.10;1.30;;;;;;;15.98;97.89;100288.04;106515;1250;71947;-69
2023/07/31 00:35:58;;;;;;;4.10;1.50;;;;;;;16.00;98.02;100279.75;106411;1250;61657;-69
2023/07/31 00:38:24;;;;;;;3.70;1.60;;;;;;;16.02;97.96;100276.19;106501;1255;61250;-69
2023/07/31 00:40:51;;;;;;;3.50;1.40;;;;;;;16.04;98.18;100271.73;106343;1255;75785;-70
2023/07/31 00:43:18;;;;;;;4.60;1.50;;;;;;;16.03;98.19;100269.89;106455;1250;69985;-69
2023/07/31 00:45:45;;;;;;;3.50;1.50;;;;;;;16.04;98.08;100268.80;106389;1254;71697;-69
2023/07/31 00:48:12;;;;;;;5.00;1.50;;;;;;;16.07;98.18;100269.35;106342;1250;61266;-68
2023/07/31 00:50:39;;;;;;;3.40;1.40;;;;;;;16.08;98.04;100268.80;106374;1250;61353;-69
2023/07/31 00:53:07;;;;;;;3.50;1.40;;;;;;;16.10;98.00;100266.34;106447;1256;73437;-70
2023/07/31 00:55:34;;;;;;;4.60;1.50;;;;;;;16.10;97.93;100263.15;106471;1250;71649;-69
2023/07/31 00:58:00;;;;;;;4.50;1.50;;;;;;;16.13;98.12;100256.57;106215;1253;71112;-70
2023/07/31 01:00:27;;;;;;;4.00;1.50;;;;;;;16.14;98.25;100254.38;106429;1255;61155;-69
2023/07/31 01:02:54;;;;;;;3.50;1.40;;;;;;;16.13;98.26;100248.09;106368;1254;63003;-69
2023/07/31 01:05:29;;;;;;;4.60;1.40;;;;;;;16.10;98.53;100241.20;106419;1257;73400;-70
2023/07/31 01:08:33;;;;;;;3.30;1.50;;;;;;;16.07;98.62;100232.75;106460;1255;71198;-69
2023/07/31 01:11:32;;;;;;;3.00;1.40;;;;;;;16.02;98.94;100228.45;106477;1255;72048;-69
2023/07/31 01:14:00;;;;;;;3.70;1.60;;;;;;;15.97;99.33;100219.84;106277;1250;61949;-70
2023/07/31 01:16:27;;;;;;;3.90;1.40;;;;;;;15.94;99.54;100217.79;106558;1255;61263;-70
2023/07/31 01:18:54;;;;;;;3.90;1.60;;;;;;;15.91;99.93;100217.61;106206;1255;74403;-70
2023/07/31 01:21:36;;;;;;;5.50;1.60;;;;;;;15.86;100.00;100213.63;106229;1256;71408;-69
2023/07/31 01:24:17;;;;;;;4.10;1.40;;;;;;;15.80;100.00;100210.19;106395;1253;71429;-71
2023/07/31 01:26:47;;;;;;;3.80;1.60;;;;;;;15.75;100.00;100204.94;106228;1252;62043;-70
2023/07/31 01:29:46;;;;;;;3.30;1.40;;;;;;;15.69;100.00;100194.76;106223;1253;61286;-70
2023/07/31 01:32:14;;;;;;;4.50;1.40;;;;;;;15.65;100.00;100191.05;106216;1255;74373;-71
2023/07/31 01:34:42;;;;;;;3.60;1.30;;;;;;;15.63;100.00;100193.23;106344;1255;71172;-71
2023/07/31 01:37:09;;;;;;;3.70;1.30;;;;;;;15.61;100.00;100191.39;106317;1251;71924;-72
2023/07/31 01:39:36;;;;;;;2.80;1.30;;;;;;;15.60;100.00;100190.29;106613;1258;61250;-70
2023/07/31 01:42:03;;;;;;;3.30;1.20;;;;;;;15.59;100.00;100198.77;106286;1255;61173;-69
2023/07/31 01:44:30;;;;;;;3.30;1.50;;;;;;;15.59;100.00;100201.77;106243;1256;74075;-71
2023/07/31 01:46:59;;;;;;;4.20;1.30;;;;;;;15.59;100.00;100190.00;106345;1262;70046;-72
2023/07/31 01:49:27;;;;;;;3.70;1.40;;;;;;;15.60;100.00;100187.90;106369;1256;71451;-71
2023/07/31 01:51:53;;;;;;;2.60;1.40;;;;;;;15.61;100.00;100187.07;106354;1251;61225;-70
2023/07/31 01:54:20;;;;;;;3.70;1.20;;;;;;;15.60;100.00;100182.60;106403;1254;61589;-71
2023/07/31 01:56:47;;;;;;;3.30;1.20;;;;;;;15.59;100.00;100173.47;106276;1254;74628;-72
2023/07/31 01:59:13;;;;;;;3.60;1.40;;;;;;;15.57;100.00;100172.30;106384;1254;69889;-72
2023/07/31 02:01:40;;;;;;;2.70;1.10;;;;;;;15.56;100.00;100170.70;106502;1255;71458;-71
2023/07/31 02:04:07;;;;;;;3.60;1.20;;;;;;;15.54;100.00;100170.77;106259;1251;62258;-72
2023/07/31 02:06:34;;;;;;;2.80;1.10;;;;;;;15.55;100.00;100169.11;106373;1253;61813;-71
2023/07/31 02:09:01;;;;;;;2.10;0.90;;;;;;;15.53;100.00;100168.27;106314;1255;74045;-71
2023/07/31 02:11:28;;;;;;;2.80;1.00;;;;;;;15.52;100.00;100162.36;106431;1256;69908;-72
2023/07/31 02:13:55;;;;;;;2.40;1.00;;;;;;;15.51;100.00;100152.33;106491;1255;73124;-72
2023/07/31 02:16:22;;;;;;;3.40;1.10;;;;;;;15.49;100.00;100154.52;106532;1256;62047;-72
2023/07/31 02:18:49;;;;;;;4.10;1.20;;;;;;;15.48;100.00;100152.30;106391;1254;59779;-71
2023/07/31 02:21:16;;;;;;;1.90;0.90;;;;;;;15.47;100.00;100151.05;106315;1263;74341;-69
2023/07/31 02:23:43;;;;;;;1.90;0.80;;;;;;;15.46;100.00;100154.54;106641;1251;71765;-71
2023/07/31 02:26:10;;;;;;;2.00;0.80;;;;;;;15.47;100.00;100152.88;106640;1256;73064;-72
2023/07/31 02:28:37;;;;;;;2.90;0.80;;;;;;;15.47;100.00;100151.45;106385;1251;61430;-71
2023/07/31 02:31:04;;;;;;;1.60;0.70;;;;;;;15.47;100.00;100149.64;106377;1251;61266;-71
2023/07/31 02:33:31;;;;;;;2.00;0.80;;;;;;;15.46;100.00;100145.42;106528;1255;73732;-71
2023/07/31 02:35:57;;;;;;;2.50;1.00;;;;;;;15.45;100.00;100145.19;106415;1251;70114;-71
2023/07/31 02:38:24;;;;;;;2.10;0.90;;;;;;;15.44;100.00;100142.85;106319;1251;71935;-69
2023/07/31 02:40:51;;;;;;;2.50;0.70;;;;;;;15.43;100.00;100135.95;106351;1251;61397;-69
2023/07/31 02:43:18;;;;;;;3.00;0.70;;;;;;;15.43;100.00;100132.95;106287;1251;61320;-69
2023/07/31 02:45:44;;;;;;;1.40;0.40;;;;;;;15.43;100.00;100137.02;106588;1255;74696;-69
2023/07/31 02:48:11;;;;;;;2.10;0.70;;;;;;;15.43;100.00;100137.77;106372;1254;69721;-70
2023/07/31 02:50:39;;;;;;;1.70;0.60;;;;;;;15.42;100.00;100137.68;106415;1251;72558;-69
2023/07/31 02:53:05;;;;;;;2.40;0.60;;;;;;;15.42;100.00;100134.92;106304;1253;61356;-69
2023/07/31 02:55:32;;;;;;;2.20;0.60;;;;;;;15.41;100.00;100130.80;106393;1254;62224;-70
2023/07/31 02:57:59;;;;;;;1.30;0.60;;;;;;;15.40;100.00;100129.85;106469;1251;75984;-72
2023/07/31 03:00:26;;;;;;;1.70;0.70;;;;;;;15.40;100.00;100128.42;106424;1254;69967;-68
2023/07/31 03:02:52;;;;;;;2.20;0.60;;;;;;;15.39;100.00;100126.24;106318;1250;72829;-70
2023/07/31 03:05:20;;;;;;;3.10;0.70;;;;;;;15.38;100.00;100125.80;106497;1252;60868;-69
2023/07/31 03:07:46;;;;;;;1.40;0.60;;;;;;;15.38;100.00;100125.67;106640;1256;61158;-70
2023/07/31 03:10:13;;;;;;;1.70;0.70;;;;;;;15.37;100.00;100126.92;106288;1251;73446;-70
2023/07/31 03:12:41;;;;;;;1.90;1.00;;;;;;;15.37;100.00;100122.61;106354;1253;70165;-70
2023/07/31 03:15:08;;;;;;;3.90;0.90;;;;;;;15.37;100.00;100122.64;106322;1251;72919;-71
2023/07/31 03:17:35;;;;;;;2.00;0.80;;;;;;;15.37;100.00;100122.77;106605;1250;61288;-70
2023/07/31 03:20:02;;;;;;;2.50;0.90;;;;;;;15.37;100.00;100124.95;106454;1255;61331;-71
2023/07/31 03:22:29;;;;;;;2.10;0.80;;;;;;;15.36;100.00;100126.80;106481;1254;73258;-69
2023/07/31 03:24:56;;;;;;;2.60;0.80;;;;;;;15.37;100.00;100124.05;106373;1254;71008;-70
2023/07/31 03:27:22;;;;;;;1.70;0.70;;;;;;;15.37;100.00;100127.95;106498;1254;72297;-69
2023/07/31 03:29:51;;;;;;;1.60;0.70;;;;;;;15.38;100.00;100130.36;106572;1255;62013;-70
2023/07/31 03:32:18;;;;;;;1.50;0.80;;;;;;;15.38;100.00;100129.58;106418;1254;61149;-69
2023/07/31 03:34:45;;;;;;;2.10;0.70;;;;;;;15.39;100.00;100135.20;106312;1251;73801;-69
2023/07/31 03:37:12;;;;;;;3.10;1.10;;;;;;;15.40;100.00;100142.96;106497;1251;71030;-70
2023/07/31 03:39:39;;;;;;;3.40;0.90;;;;;;;15.41;100.00;100139.89;106585;1251;71172;-71
2023/07/31 03:42:06;;;;;;;3.00;1.00;;;;;;;15.42;100.00;100133.16;106414;1250;61449;-70
2023/07/31 03:44:33;;;;;;;2.00;0.80;;;;;;;15.43;100.00;100133.37;106455;1257;61231;-69
2023/07/31 03:47:00;;;;;;;3.50;1.10;;;;;;;15.43;100.00;100134.44;106271;1256;73607;-69
2023/07/31 03:49:26;;;;;;;1.60;0.90;;;;;;;15.42;100.00;100129.67;106418;1251;71566;-69
2023/07/31 03:51:54;;;;;;;2.40;0.80;;;;;;;15.42;100.00;100135.55;106664;1251;72659;-69
2023/07/31 03:54:21;;;;;;;2.60;0.90;;;;;;;15.43;100.00;100133.53;106317;1256;61227;-69
2023/07/31 03:56:47;;;;;;;2.10;0.90;;;;;;;15.42;100.00;100128.42;106305;1251;61391;-69
2023/07/31 03:59:14;;;;;;;2.30;1.00;;;;;;;15.42;100.00;100125.97;106457;1256;73531;-70
2023/07/31 04:01:41;;;;;;;2.50;0.80;;;;;;;15.42;100.00;100128.67;106442;1251;61003;-71
2023/07/31 04:04:07;;;;;;;1.90;0.90;;;;;;;15.41;100.00;100126.48;106445;1254;72652;-69
2023/07/31 04:06:34;;;;;;;2.10;1.00;;;;;;;15.40;100.00;100124.55;106277;1251;61270;-69
2023/07/31 04:09:02;;;;;;;2.90;1.10;;;;;;;15.37;100.00;100124.62;106277;1251;61315;-70
2023/07/31 04:11:30;;;;;;;4.00;1.10;;;;;;;15.35;100.00;100121.14;106278;1251;73522;-69
2023/07/31 04:13:56;;;;;;;2.40;1.10;;;;;;;15.33;100.00;100117.34;106622;1250;70234;-69
2023/07/31 04:16:23;;;;;;;1.60;0.80;;;;;;;15.29;100.00;100120.70;106356;1251;61375;-68
2023/07/31 04:18:49;;;;;;;2.40;1.00;;;;;;;15.26;100.00;100118.65;106344;1251;61956;-69
2023/07/31 04:21:17;;;;;;;2.30;0.90;;;;;;;15.22;100.00;100121.17;106282;1251;61361;-67
2023/07/31 04:23:44;;;;;;;3.70;1.20;;;;;;;15.19;100.00;100117.91;106581;1251;74649;-69
2023/07/31 04:26:11;;;;;;;3.10;1.00;;;;;;;15.18;100.00;100114.20;106484;1250;70645;-68
2023/07/31 04:28:38;;;;;;;2.60;1.00;;;;;;;15.14;100.00;100114.15;106455;1254;72672;-68
2023/07/31 04:31:04;;;;;;;3.20;1.30;;;;;;;15.13;100.00;100114.89;106375;1254;61895;-68
2023/07/31 04:33:31;;;;;;;3.50;1.30;;;;;;;15.12;100.00;100112.20;106379;1251;61334;-68
2023/07/31 04:36:00;;;;;;;2.80;1.00;;;;;;;15.13;100.00;100110.41;106613;1253;73422;-69
2023/07/31 04:38:27;;;;;;;3.00;1.10;;;;;;;15.14;100.00;100108.20;106395;1251;71176;-67
2023/07/31 04:40:54;;;;;;;2.00;1.20;;;;;;;15.14;100.00;100109.97;106360;1251;71580;-68
2023/07/31 04:43:20;;;;;;;2.20;1.10;;;;;;;15.14;100.00;100115.37;106298;1255;61234;-68
2023/07/31 04:45:50;;;;;;;2.40;1.00;;;;;;;15.15;100.00;100107.85;106433;1252;61366;-69
2023/07/31 04:48:16;;;;;;;2.40;1.10;;;;;;;15.16;100.00;100112.23;106350;1251;74665;-67
2023/07/31 04:50:43;;;;;;;2.60;1.10;;;;;;;15.17;100.00;100113.75;106255;1251;71178;-70
2023/07/31 04:53:10;;;;;;;2.10;0.90;;;;;;;15.18;100.00;100117.02;106322;1254;73135;-71
2023/07/31 04:55:37;;;;;;;1.90;1.00;;;;;;;15.17;100.00;100109.30;106329;1253;62001;-72
2023/07/31 04:58:04;;;;;;;2.20;1.10;;;;;;;15.18;100.00;100106.55;106692;1254;61237;-69
2023/07/31 05:00:31;;;;;;;2.60;0.80;;;;;;;15.19;100.00;100108.88;106322;1251;74656;-71
2023/07/31 05:02:58;;;;;;;2.60;0.90;;;;;;;15.17;100.00;100098.77;106348;1254;71278;-69
2023/07/31 05:05:25;;;;;;;3.00;1.00;;;;;;;15.14;100.00;100096.68;106319;1254;72461;-71
2023/07/31 05:07:52;;;;;;;1.50;0.70;;;;;;;15.14;100.00;100098.52;106501;1251;61890;-71
2023/07/31 05:10:18;;;;;;;1.90;0.90;;;;;;;15.13;100.00;100098.28;106470;1251;61236;-70
2023/07/31 05:12:45;;;;;;;1.70;0.70;;;;;;;15.11;100.00;100098.44;106267;1254;74602;-70
2023/07/31 05:15:12;;;;;;;2.00;0.70;;;;;;;15.08;100.00;100093.44;106288;1251;70445;-70
2023/07/31 05:17:39;;;;;;;1.30;0.60;;;;;;;15.07;100.00;100091.06;106316;1251;71997;-73
2023/07/31 05:20:06;;;;;;;2.10;0.80;;;;;;;15.06;100.00;100086.70;106643;1250;63221;-72
2023/07/31 05:22:33;;;;;;;1.90;0.90;;;;;;;15.04;100.00;100078.35;106605;1249;61137;-69
2023/07/31 05:25:00;;;;;;;2.00;0.90;;;;;;;15.01;100.00;100074.84;106340;1253;73519;-70
2023/07/31 05:27:27;;;;;;;2.20;0.90;;;;;;;15.00;100.00;100074.33;106391;1251;69925;-69
2023/07/31 05:29:54;;;;;;;1.70;0.70;;;;;;;15.00;100.00;100076.02;106464;1251;71716;-70
2023/07/31 05:32:21;;;;;;;1.70;0.60;;;;;;;15.01;100.00;100071.96;106454;1250;61263;-69
2023/07/31 05:34:51;;;;;;;2.50;0.80;;;;;;;15.02;100.00;100078.94;106228;1251;61206;-69
2023/07/31 05:37:19;;;;;;;2.00;0.90;;;;;;;15.03;100.00;100077.16;106397;1257;73234;-70
2023/07/31 05:39:46;;;;;;;2.30;1.10;;;;;;;15.06;100.00;100072.61;106349;1251;69929;-70
2023/07/31 05:42:13;;;;;;;2.40;1.30;;;;;;;15.08;100.00;100068.98;106513;1251;71865;-70
2023/07/31 05:44:39;;;;;;;3.40;1.70;;;;;;;15.09;100.00;100075.52;106300;1249;61274;-70
2023/07/31 05:47:06;;;;;;;3.60;1.80;;;;;;;15.13;100.00;100072.27;106316;1251;61311;-69
2023/07/31 05:49:34;;;;;;;4.70;2.30;;;;;;;15.20;100.00;100068.67;106362;1251;73442;-70
2023/07/31 05:52:00;;;;;;;5.10;2.50;;;;;;;15.24;100.00;100068.93;106504;1249;69647;-70
2023/07/31 05:54:27;;;;;;;4.80;2.90;;;;;;;15.28;100.00;100068.26;106393;1251;72772;-70
2023/07/31 05:56:54;;;;;;;4.70;3.00;;;;;;;15.31;100.00;100064.85;106372;1251;61165;-70
2023/07/31 05:59:20;;;;;;;5.60;3.20;;;;;;;15.35;100.00;100063.09;106160;1254;61266;-70
2023/07/31 06:01:47;;;;;;;5.40;3.70;;;;;;;15.36;100.00;100063.89;106263;1250;73455;-72
2023/07/31 06:04:14;;;;;;;8.20;4.40;;;;;;;15.37;100.00;100062.95;106607;1250;69950;-70
2023/07/31 06:06:41;;;;;;;6.50;4.70;;;;;;;15.37;100.00;100062.83;106253;1251;71408;-70
2023/07/31 06:09:08;;;;;;;7.40;5.00;;;;;;;15.37;100.00;100055.20;106279;1251;61755;-70
2023/07/31 06:11:35;;;;;;;9.30;5.70;;;;;;;15.39;100.00;100055.73;106458;1250;61369;-70
2023/07/31 06:14:02;;;;;;;9.30;6.10;;;;;;;15.41;100.00;100057.89;106612;1251;73557;-72
2023/07/31 06:16:29;;;;;;;9.10;6.00;;;;;;;15.46;100.00;100060.22;106335;1251;69930;-71
2023/07/31 06:18:56;;;;;;;9.60;6.20;;;;;;;15.53;100.00;100056.19;106456;1250;72698;-71
2023/07/31 06:21:22;;;;;;;10.50;6.50;;;;;;;15.59;100.00;100053.13;106421;1256;62378;-71
2023/07/31 06:23:49;;;;;;;10.60;6.70;;;;;;;15.67;100.00;100057.34;106422;1253;61087;-72
2023/07/31 06:26:16;;;;;;;9.50;6.70;;;;;;;15.76;100.00;100056.08;106558;1250;73539;-71
2023/07/31 06:28:42;;;;;;;8.70;5.60;;;;;;;15.84;100.00;100056.52;106285;1251;69657;-71
2023/07/31 06:31:09;;;;;;;10.90;6.50;;;;;;;15.87;100.00;100053.35;106359;1251;71418;-73
2023/07/31 06:33:37;;;;;;;9.00;6.00;;;;;;;15.89;100.00;100057.67;106415;1250;61268;-72
2023/07/31 06:36:04;;;;;;;11.40;6.90;;;;;;;15.88;100.00;100053.91;106538;1250;61350;-74
2023/07/31 06:38:31;;;;;;;11.30;6.40;;;;;;;15.87;100.00;100049.49;106354;1249;73597;-71
2023/07/31 06:40:57;;;;;;;7.40;5.40;;;;;;;15.85;100.00;100045.64;106321;1251;70078;-70
2023/07/31 06:43:24;;;;;;;9.30;6.10;;;;;;;15.83;100.00;100046.00;106376;1250;71466;-70
2023/07/31 06:45:54;;;;;;;7.20;5.00;;;;;;;15.81;100.00;100052.96;106438;1249;61697;-72
2023/07/31 06:48:21;;;;;;;11.30;5.60;;;;;;;15.79;100.00;100051.99;106379;1254;61248;-71
2023/07/31 06:50:48;;;;;;;8.30;5.60;;;;;;;15.77;100.00;100050.92;106188;1251;74658;-72
2023/07/31 06:53:15;;;;;;;12.30;6.40;;;;;;;15.75;100.00;100053.27;106333;1251;71143;-71
2023/07/31 06:55:42;;;;;;;9.60;5.70;;;;;;;15.72;100.00;100053.94;106281;1251;72629;-71
2023/07/31 06:58:09;;;;;;;9.70;5.70;;;;;;;15.67;100.00;100051.90;106527;1251;60720;-70
2023/07/31 07:00:35;;;;;;;9.10;6.30;;;;;;;15.67;100.00;100054.14;106406;1250;61556;-69
2023/07/31 07:03:02;;;;;;;10.90;6.90;;;;;;;15.66;100.00;100055.63;106294;1250;74635;-72
2023/07/31 07:05:29;;;;;;;10.80;7.30;;;;;;;15.65;100.00;100053.98;106360;1253;69735;-70
2023/07/31 07:07:56;;;;;;;11.10;7.50;;;;;;;15.66;100.00;100049.34;106378;1250;71207;-72
2023/07/31 07:10:23;;;;;;;11.80;6.90;;;;;;;15.67;100.00;100064.45;106543;1250;61391;-72
2023/07/31 07:12:50;;;;;;;11.40;7.90;;;;;;;15.66;100.00;100063.20;106500;1251;61209;-70
2023/07/31 07:15:17;;;;;;;10.70;7.40;;;;;;;15.64;100.00;100060.20;106255;1254;73618;-73
2023/07/31 07:17:44;;;;;;;11.50;7.80;;;;;;;15.63;100.00;100056.60;106376;1251;71300;-70
2023/07/31 07:20:11;;;;;;;14.90;8.10;;;;;;;15.66;100.00;100052.50;106468;1256;72355;-71
2023/07/31 07:22:38;;;;;;;12.70;7.90;;;;;;;15.69;100.00;100049.33;106335;1250;61718;-72
2023/07/31 07:25:07;;;;;;;13.60;8.90;;;;;;;15.72;100.00;100044.46;106207;1255;61292;-71
2023/07/31 07:27:34;;;;;;;16.30;9.40;;;;;;;15.78;100.00;100041.11;106396;1255;75947;-73
2023/07/31 07:30:01;;;;;;;13.40;9.90;;;;;;;15.82;100.00;100041.23;106447;1251;71139;-72
2023/07/31 07:32:28;;;;;;;15.70;9.50;;;;;;;15.87;100.00;100048.44;106439;1251;71080;-70
2023/07/31 07:34:56;;;;;;;15.20;9.60;;;;;;;15.93;100.00;100055.40;106354;1250;61347;-70
2023/07/31 07:37:23;;;;;;;13.70;9.50;;;;;;;15.97;100.00;100064.66;106370;1251;61174;-70
2023/07/31 07:39:50;;;;;;;16.70;9.80;;;;;;;16.01;100.00;100057.70;106375;1252;73717;-70
2023/07/31 07:42:16;;;;;;;17.90;9.80;;;;;;;16.09;100.00;100060.52;106624;1252;70366;-71
2023/07/31 07:44:43;;;;;;;17.10;10.40;;;;;;;16.18;100.00;100054.70;106383;1250;71455;-71
2023/07/31 07:47:10;;;;;;;13.60;10.10;;;;;;;16.29;100.00;100049.22;106315;1250;62100;-71
2023/07/31 07:49:38;;;;;;;15.90;9.90;;;;;;;16.42;100.00;100047.52;106377;1250;61273;-70
2023/07/31 07:52:04;;;;;;;13.40;9.10;;;;;;;16.55;100.00;100054.45;106365;1251;73404;-72
2023/07/31 07:54:32;;;;;;;14.00;9.70;;;;;;;16.65;100.00;100049.78;106121;1250;493923;-71
2023/07/31 07:56:59;;;;;;;14.20;9.30;;;;;;;16.77;100.00;100048.33;106299;1250;71147;-71
2023/07/31 07:59:26;;;;;;;15.50;9.30;;;;;;;16.81;100.00;100046.75;106272;1257;61395;-69
2023/07/31 08:01:53;;;;;;;16.90;9.30;;;;;;;16.90;100.00;100047.39;106445;1251;61527;-69
2023/07/31 08:04:20;;;;;;;14.80;9.10;;;;;;;17.04;100.00;100039.19;106633;1250;75289;-69
2023/07/31 08:06:47;;;;;;;14.60;9.10;;;;;;;17.20;100.00;100034.49;106460;1251;71402;-68
2023/07/31 08:09:13;;;;;;;15.50;8.40;;;;;;;17.32;100.00;100040.52;106351;1255;71620;-68
2023/07/31 08:11:40;;;;;;;13.50;7.90;;;;;;;17.46;100.00;100036.41;106335;1250;61369;-69
2023/07/31 08:14:07;;;;;;;13.70;8.30;;;;;;;17.60;100.00;100037.65;106415;1250;61369;-68
2023/07/31 08:16:34;;;;;;;10.90;6.50;;;;;;;17.70;100.00;100048.33;106476;1250;72359;-68
2023/07/31 08:19:01;;;;;;;11.80;7.00;;;;;;;17.78;100.00;100046.42;106386;1250;71735;-68
2023/07/31 08:21:27;;;;;;;10.80;6.20;;;;;;;17.85;100.00;100045.53;106310;1253;72155;-70
2023/07/31 08:23:54;;;;;;;9.30;5.50;;;;;;;17.84;99.98;100048.94;106453;1252;63568;-70
2023/07/31 08:26:21;;;;;;;10.80;5.50;;;;;;;17.78;98.41;100055.14;106866;1251;61241;-67
2023/07/31 08:28:47;;;;;;;10.00;5.70;;;;;;;17.79;99.26;100051.23;106372;1249;73515;-67
2023/07/31 08:31:14;;;;;;;10.60;5.60;;;;;;;17.81;99.64;100053.39;106358;1250;69924;-67
2023/07/31 08:33:41;;;;;;;11.60;5.60;;;;;;;17.85;99.85;100051.92;106331;1254;72677;-68
2023/07/31 08:36:08;;;;;;;7.10;4.70;;;;;;;17.87;97.77;100051.43;106460;1251;62945;-69
2023/07/31 08:38:35;;;;;;;6.40;4.60;;;;;;;17.81;96.78;100055.74;106571;1251;61263;-68
2023/07/31 08:41:05;;;;;;;9.80;4.90;;;;;;;17.78;96.35;100049.61;106254;1251;74719;-68
2023/07/31 08:43:33;;;;;;;8.80;4.40;;;;;;;17.84;96.49;100038.84;106309;1250;70083;-69
2023/07/31 08:46:01;;;;;;;8.70;5.10;;;;;;;18.00;96.88;100031.70;106385;1250;72553;-67
2023/07/31 08:48:29;;;;;;;8.30;4.70;;;;;;;18.07;96.58;100039.39;106531;1250;62010;-67
2023/07/31 08:50:56;;;;;;;9.40;5.40;;;;;;;17.97;95.03;100042.10;106407;1250;61102;-66
2023/07/31 08:53:23;;;;;;;9.90;4.70;;;;;;;17.82;95.36;100037.41;106400;1253;74447;-66
2023/07/31 08:55:52;;;;;;;10.60;5.20;;;;;;;17.67;95.72;100031.36;106237;1251;71215;-67
2023/07/31 08:58:20;;;;;;;9.60;5.30;;;;;;;17.58;96.70;100034.67;106558;1250;72665;-67
2023/07/31 09:00:47;;;;;;;10.60;5.50;;;;;;;17.53;98.21;100027.96;106231;1250;62151;-67
2023/07/31 09:03:15;;;;;;;9.80;5.80;;;;;;;17.55;98.66;100026.35;106392;1250;61249;-67
2023/07/31 09:05:44;;;;;;;10.80;5.40;;;;;;;17.63;99.46;100015.95;106409;1250;73563;-67
2023/07/31 09:08:19;;;;;;;10.50;5.30;;;;;;;17.74;98.83;100014.81;106534;1250;70622;-68
2023/07/31 09:10:47;;;;;;;10.60;5.20;;;;;;;17.94;98.99;100007.44;106273;1250;71316;-68
2023/07/31 09:13:14;;;;;;;9.60;4.70;;;;;;;18.11;97.97;100013.64;106327;1250;61442;-69
2023/07/31 09:15:44;;;;;;;9.90;4.90;;;;;;;18.12;97.83;100015.34;106362;1252;61260;-67
2023/07/31 09:18:11;;;;;;;10.20;4.80;;;;;;;18.04;97.93;100010.57;106704;1250;73867;-68
2023/07/31 09:20:38;;;;;;;9.60;4.60;;;;;;;17.94;98.01;100011.73;106382;1253;71055;-67
2023/07/31 09:23:06;;;;;;;13.10;4.40;;;;;;;17.93;98.88;100003.98;106312;1250;72655;-68
2023/07/31 09:25:33;;;;;;;7.90;4.10;;;;;;;17.97;98.94;100005.55;106348;1252;61342;-66
2023/07/31 09:28:02;;;;;;;7.90;4.70;;;;;;;17.98;98.86;99996.23;106392;1250;61527;-67
2023/07/31 09:30:30;;;;;;;7.90;4.40;;;;;;;18.07;98.92;100002.56;106326;1250;73407;-67
2023/07/31 09:33:07;;;;;;;8.50;4.00;;;;;;;18.18;98.90;99998.42;106167;1250;70210;-66
2023/07/31 09:35:37;;;;;;;6.70;3.70;;;;;;;18.23;98.09;99994.69;106379;1253;71522;-67
2023/07/31 09:38:06;;;;;;;8.40;3.70;;;;;;;18.23;97.84;99988.93;106427;1254;61280;-66
2023/07/31 09:40:38;;;;;;;6.20;3.50;;;;;;;18.18;97.61;99988.07;106312;1250;62169;-67
2023/07/31 09:43:07;;;;;;;6.00;3.20;;;;;;;18.09;97.25;99988.23;106330;1250;73581;-66
2023/07/31 09:45:36;;;;;;;6.00;3.40;;;;;;;18.10;98.23;99986.67;106388;1250;71597;-67
2023/07/31 09:48:18;;;;;;;5.40;3.10;;;;;;;18.07;98.46;99983.95;106506;1251;71179;-66
2023/07/31 09:50:48;;;;;;;6.10;3.10;;;;;;;18.05;99.02;99979.02;106396;1250;62620;-67
2023/07/31 09:53:17;;;;;;;5.40;2.90;;;;;;;18.00;99.35;99982.70;106416;1250;61689;-68
2023/07/31 09:55:44;;;;;;;4.30;2.50;;;;;;;17.94;99.47;99977.71;106498;1249;75152;-66
2023/07/31 09:58:12;;;;;;;3.90;2.20;;;;;;;17.88;99.63;99981.41;106184;1251;70345;-66
2023/07/31 10:00:39;;;;;;;4.60;2.90;;;;;;;17.81;99.96;99974.42;106303;1253;71451;-66
2023/07/31 10:03:08;;;;;;;4.30;2.30;;;;;;;17.79;100.00;99973.01;106296;1250;61717;-66
2023/07/31 10:05:42;;;;;;;4.40;2.20;;;;;;;17.80;100.00;99970.72;106607;1250;61199;-67
2023/07/31 10:08:12;;;;;;;5.00;2.00;;;;;;;17.86;100.00;99970.22;106216;1250;73570;-66
2023/07/31 10:10:42;;;;;;;5.90;2.40;;;;;;;17.95;100.00;99968.55;106306;1253;70027;-67
2023/07/31 10:13:10;;;;;;;2.90;1.80;;;;;;;18.02;100.00;99970.27;106319;1253;72432;-67
2023/07/31 10:15:37;;;;;;;3.90;1.60;;;;;;;18.08;99.98;99969.47;106566;1255;62250;-66
2023/07/31 10:18:06;;;;;;;3.80;1.90;;;;;;;18.14;100.00;99963.55;106235;1250;61261;-67
2023/07/31 10:20:34;;;;;;;3.10;1.60;;;;;;;18.20;99.95;99961.35;106403;1253;74978;-67
2023/07/31 10:23:01;;;;;;;5.00;1.70;;;;;;;18.24;99.50;99963.13;106420;1249;71980;-67
2023/07/31 10:25:30;;;;;;;3.10;1.70;;;;;;;18.30;98.78;99962.63;106513;1253;72936;-67
2023/07/31 10:27:57;;;;;;;3.30;1.50;;;;;;;18.35;97.99;99964.91;106381;1249;63253;-69
2023/07/31 10:30:32;;;;;;;2.90;1.60;;;;;;;18.38;97.76;99963.14;106283;1250;61332;-67
2023/07/31 10:32:59;;;;;;;2.80;1.70;;;;;;;18.41;97.20;99956.75;106330;1251;73473;-71
2023/07/31 10:35:27;;;;;;;3.00;1.80;;;;;;;18.51;97.25;99952.07;106658;1250;71164;-67
2023/07/31 10:37:54;;;;;;;5.00;1.70;;;;;;;18.60;96.32;99946.07;106246;1250;70552;-68
2023/07/31 10:40:26;;;;;;;2.90;1.80;;;;;;;18.65;95.80;99948.09;106372;1251;61267;-68
2023/07/31 10:43:00;;;;;;;4.20;1.80;;;;;;;18.64;94.80;99944.52;106394;1250;61293;-69
2023/07/31 10:45:38;;;;;;;2.80;1.80;;;;;;;18.65;95.13;99937.39;106354;1250;73842;-66
2023/07/31 10:48:16;;;;;;;3.90;1.90;;;;;;;18.72;94.87;99932.39;106308;1250;70485;-66
2023/07/31 10:50:49;;;;;;;2.90;1.80;;;;;;;18.88;94.23;99933.06;106594;1250;72745;-69
2023/07/31 10:53:30;;;;;;;3.50;2.10;;;;;;;19.03;93.06;99928.52;106340;1250;62395;-68
2023/07/31 10:56:01;;;;;;;3.60;2.00;;;;;;;19.27;92.61;99927.85;106376;1251;61240;-68
2023/07/31 10:58:27;;;;;;;3.60;1.90;;;;;;;19.48;91.60;99929.55;106653;1249;72802;-70
2023/07/31 11:00:59;;;;;;;3.90;2.00;;;;;;;19.58;90.82;99921.14;106394;1250;69917;-69
2023/07/31 11:03:41;;;;;;;3.30;1.80;;;;;;;19.73;90.50;99921.90;106373;1251;71123;-70
2023/07/31 11:06:08;;;;;;;3.00;1.80;;;;;;;19.86;89.88;99919.30;106458;1250;61459;-72
2023/07/31 11:08:44;;;;;;;3.90;2.00;;;;;;;19.95;88.61;99923.36;106378;1250;61240;-70
2023/07/31 11:11:16;;;;;;;3.30;1.90;;;;;;;19.99;87.51;99919.83;106318;1253;73457;-71
2023/07/31 11:13:54;;;;;;;4.60;2.00;;;;;;;20.02;87.55;99921.30;106298;1250;71633;-70
2023/07/31 11:16:25;;;;;;;2.70;1.70;;;;;;;20.07;87.46;99910.64;106428;1250;70601;-70